createdAt,value
2019-05-23T00:00:46.480Z,17.87
2019-05-23T00:03:16.364Z,12.83
2019-05-23T00:05:49.707Z,20.17
2019-05-23T00:08:24.104Z,23.20
2019-05-23T00:11:22.010Z,11.03
2019-05-23T00:14:00.544Z,17.20
2019-05-23T00:16:30.932Z,13.93
2019-05-23T00:19:00.428Z,15.67
2019-05-23T00:21:30.620Z,12.30
2019-05-23T00:24:00.081Z,15.40
2019-05-23T00:26:29.925Z,10.57
2019-05-23T00:29:09.510Z,12.50
2019-05-23T00:31:35.522Z,11.03
2019-05-23T00:34:06.581Z,9.53
2019-05-23T00:36:35.613Z,11.70
2019-05-23T00:39:09.043Z,25.63
2019-05-23T00:41:40.530Z,10.40
2019-05-23T00:44:11.312Z,12.17
2019-05-23T00:46:41.426Z,13.10
2019-05-23T00:49:11.141Z,11.77
2019-05-23T00:51:41.665Z,14.70
2019-05-23T00:54:10.996Z,12.80
2019-05-23T00:56:41.860Z,18.17
2019-05-23T00:59:25.853Z,16.50
2019-05-23T01:01:42.903Z,13.47
2019-05-23T01:04:13.181Z,11.33
2019-05-23T01:06:44.126Z,15.67
2019-05-23T01:09:13.339Z,11.23
2019-05-23T01:11:44.075Z,14.77
2019-05-23T01:14:13.830Z,13.33
2019-05-23T01:16:42.996Z,16.13
2019-05-23T01:19:12.614Z,12.60
2019-05-23T01:22:01.267Z,14.57
2019-05-23T01:24:37.355Z,15.20
2019-05-23T01:27:07.189Z,16.70
2019-05-23T01:29:39.777Z,19.83
2019-05-23T01:32:27.238Z,9.90
2019-05-23T01:34:58.852Z,12.90
2019-05-23T01:37:27.867Z,14.67
2019-05-23T01:39:57.606Z,17.47
2019-05-23T01:42:28.120Z,13.80
2019-05-23T01:45:00.076Z,14.87
2019-05-23T01:47:29.190Z,12.07
2019-05-23T01:49:58.880Z,19.73
2019-05-23T01:52:28.563Z,12.23
2019-05-23T01:54:58.951Z,15.43
2019-05-23T01:57:27.948Z,12.50
2019-05-23T02:00:08.994Z,22.63
2019-05-23T02:02:29.160Z,11.90
2019-05-23T02:04:58.308Z,11.27
2019-05-23T02:07:29.200Z,12.97
2019-05-23T02:09:58.696Z,12.13
2019-05-23T02:12:28.119Z,11.50
2019-05-23T02:14:57.164Z,13.10
2019-05-23T02:17:26.162Z,13.43
2019-05-23T02:19:56.178Z,16.70
2019-05-23T02:22:25.105Z,15.00
2019-05-23T02:24:54.600Z,13.03
2019-05-23T02:27:25.182Z,12.10
2019-05-23T02:29:55.873Z,10.40
2019-05-23T02:32:26.088Z,13.83
2019-05-23T02:34:55.712Z,13.00
2019-05-23T02:37:42.246Z,20.03
2019-05-23T02:40:20.745Z,13.17
2019-05-23T02:42:55.458Z,13.93
2019-05-23T02:45:31.716Z,11.00
2019-05-23T02:48:01.156Z,12.00
2019-05-23T02:50:36.470Z,16.13
2019-05-23T02:53:09.069Z,12.73
2019-05-23T02:55:40.534Z,21.83
2019-05-23T02:58:31.438Z,17.80
2019-05-23T03:01:12.816Z,13.93
2019-05-23T03:03:41.760Z,16.77
2019-05-23T03:06:17.272Z,14.50
2019-05-23T03:08:47.991Z,15.10
2019-05-23T03:11:36.517Z,17.57
2019-05-23T03:14:06.335Z,14.33
2019-05-23T03:16:35.901Z,15.77
2019-05-23T03:19:12.507Z,15.00
2019-05-23T03:21:43.485Z,15.03
2019-05-23T03:24:12.816Z,17.43
2019-05-23T03:27:13.549Z,13.60
2019-05-23T03:29:42.607Z,13.33
2019-05-23T03:32:37.441Z,11.83
2019-05-23T03:35:18.831Z,23.07
2019-05-23T03:37:49.657Z,30.67
2019-05-23T03:40:20.393Z,20.30
2019-05-23T03:42:49.584Z,82.07
2019-05-23T03:45:22.536Z,59.53
2019-05-23T03:47:53.203Z,29.63
2019-05-23T03:50:23.137Z,21.07
2019-05-23T03:52:52.187Z,16.03
2019-05-23T03:55:23.477Z,17.40
2019-05-23T03:57:54.729Z,16.40
2019-05-23T04:00:26.894Z,18.67
2019-05-23T04:02:57.474Z,17.83
2019-05-23T04:05:29.598Z,16.07
2019-05-23T04:08:07.566Z,15.73
2019-05-23T04:10:37.506Z,17.30
2019-05-23T04:13:08.052Z,18.03
2019-05-23T04:15:37.766Z,18.87
2019-05-23T04:18:06.823Z,21.93
2019-05-23T04:20:36.606Z,15.23
2019-05-23T04:23:05.763Z,21.57
2019-05-23T04:25:35.253Z,17.43
2019-05-23T04:28:04.371Z,17.10
2019-05-23T04:30:34.575Z,17.80
2019-05-23T04:33:04.454Z,21.87
2019-05-23T04:35:33.877Z,18.33
2019-05-23T04:38:03.266Z,16.33
2019-05-23T04:40:32.803Z,20.43
2019-05-23T04:43:01.887Z,22.00
2019-05-23T04:45:31.302Z,19.97
2019-05-23T04:48:01.112Z,20.57
2019-05-23T04:50:30.736Z,23.43
2019-05-23T04:53:00.291Z,29.80
2019-05-23T04:55:29.587Z,30.93
2019-05-23T04:58:03.682Z,28.33
2019-05-23T05:00:31.094Z,18.87
2019-05-23T05:03:00.479Z,21.63
2019-05-23T05:05:29.997Z,16.97
2019-05-23T05:07:59.222Z,21.63
2019-05-23T05:10:29.063Z,29.80
2019-05-23T05:12:58.465Z,39.43
2019-05-23T05:15:27.563Z,17.07
2019-05-23T05:17:56.949Z,12.63
2019-05-23T05:20:26.246Z,21.20
2019-05-23T05:22:55.405Z,15.13
2019-05-23T05:25:24.734Z,17.17
2019-05-23T05:27:53.722Z,17.50
2019-05-23T05:30:24.299Z,21.47
2019-05-23T05:32:53.309Z,14.03
2019-05-23T05:35:22.873Z,15.50
2019-05-23T05:37:51.988Z,15.27
2019-05-23T05:40:21.628Z,15.33
2019-05-23T05:42:51.522Z,16.97
2019-05-23T05:45:21.265Z,15.20
2019-05-23T05:47:50.803Z,13.87
2019-05-23T05:50:20.474Z,14.27
2019-05-23T05:52:49.380Z,14.20
2019-05-23T05:55:18.976Z,13.60
2019-05-23T05:57:48.383Z,14.60
2019-05-23T06:00:47.666Z,11.20
2019-05-23T06:03:16.723Z,12.40
2019-05-23T06:06:03.594Z,10.80
2019-05-23T06:08:35.390Z,10.50
2019-05-23T06:11:05.414Z,12.03
2019-05-23T06:13:34.601Z,8.27
2019-05-23T06:16:03.750Z,9.90
2019-05-23T06:18:32.831Z,9.90
2019-05-23T06:21:04.032Z,6.93
2019-05-23T06:23:33.978Z,13.13
2019-05-23T06:26:03.054Z,10.80
2019-05-23T06:28:34.791Z,7.47
2019-05-23T06:31:04.172Z,7.83
2019-05-23T06:33:34.234Z,7.80
2019-05-23T06:36:03.918Z,6.97
2019-05-23T06:38:33.163Z,7.33
2019-05-23T06:41:04.064Z,14.53
2019-05-23T06:43:35.405Z,6.40
2019-05-23T06:46:04.782Z,7.17
2019-05-23T06:48:34.306Z,5.97
2019-05-23T06:51:03.646Z,6.70
2019-05-23T06:53:32.657Z,5.37
2019-05-23T06:56:01.605Z,7.97
2019-05-23T06:58:31.389Z,5.10
2019-05-23T07:01:00.558Z,4.63
2019-05-23T07:03:41.707Z,8.37
2019-05-23T07:06:00.611Z,7.23
2019-05-23T07:08:31.108Z,5.40
2019-05-23T07:11:00.259Z,5.20
2019-05-23T07:13:31.459Z,5.40
2019-05-23T07:16:00.670Z,6.70
2019-05-23T07:18:29.758Z,5.70
2019-05-23T07:20:59.091Z,5.20
2019-05-23T07:23:29.492Z,4.13
2019-05-23T07:25:58.619Z,7.43
2019-05-23T07:28:27.643Z,4.37
2019-05-23T07:30:57.567Z,10.30
2019-05-23T07:33:26.686Z,13.40
2019-05-23T07:35:55.935Z,6.30
2019-05-23T07:38:25.074Z,4.90
2019-05-23T07:40:54.588Z,6.10
2019-05-23T07:43:24.014Z,4.13
2019-05-23T07:45:56.083Z,4.53
2019-05-23T07:48:25.254Z,4.50
2019-05-23T07:50:54.505Z,4.70
2019-05-23T07:53:37.133Z,5.13
2019-05-23T07:56:07.276Z,4.40
2019-05-23T07:58:36.200Z,3.00
2019-05-23T08:01:07.091Z,3.07
2019-05-23T08:03:40.522Z,4.23
2019-05-23T08:06:09.997Z,4.37
2019-05-23T08:08:39.400Z,5.80
2019-05-23T08:11:08.395Z,4.70
2019-05-23T08:13:37.980Z,6.63
2019-05-23T08:16:07.209Z,4.60
2019-05-23T08:18:36.257Z,4.27
2019-05-23T08:21:05.458Z,4.73
2019-05-23T08:23:34.494Z,4.17
2019-05-23T08:26:03.970Z,5.43
2019-05-23T08:28:33.113Z,4.33
2019-05-23T08:31:02.907Z,8.87
2019-05-23T08:33:33.593Z,4.97
2019-05-23T08:36:03.223Z,5.30
2019-05-23T08:38:32.490Z,4.23
2019-05-23T08:41:02.046Z,8.27
2019-05-23T08:43:31.622Z,8.07
2019-05-23T08:46:01.215Z,9.23
2019-05-23T08:48:30.340Z,7.00
2019-05-23T08:50:59.487Z,6.13
2019-05-23T08:53:28.498Z,5.60
2019-05-23T08:55:57.908Z,4.17
2019-05-23T08:58:26.923Z,5.30
2019-05-23T09:00:56.415Z,9.17
2019-05-23T09:03:25.519Z,5.60
2019-05-23T09:05:54.446Z,8.93
2019-05-23T09:08:24.325Z,4.73
2019-05-23T09:10:54.205Z,5.73
2019-05-23T09:13:24.039Z,9.30
2019-05-23T09:15:53.594Z,4.80
2019-05-23T09:18:23.349Z,4.50
2019-05-23T09:20:52.334Z,6.07
2019-05-23T09:23:21.481Z,5.13
2019-05-23T09:25:50.627Z,5.03
2019-05-23T09:28:19.778Z,5.47
2019-05-23T09:30:48.904Z,7.33
2019-05-23T09:33:17.883Z,4.70
2019-05-23T09:35:47.472Z,6.27
2019-05-23T09:38:16.674Z,7.60
2019-05-23T09:40:46.106Z,9.20
2019-05-23T09:43:15.532Z,4.60
2019-05-23T09:45:44.578Z,4.83
2019-05-23T09:48:13.594Z,5.10
2019-05-23T09:50:42.691Z,7.03
2019-05-23T09:53:11.678Z,5.60
2019-05-23T09:55:41.173Z,6.30
2019-05-23T09:58:10.470Z,6.63
2019-05-23T10:00:39.566Z,9.57
2019-05-23T10:03:08.893Z,12.17
2019-05-23T10:05:43.229Z,6.27
2019-05-23T10:08:08.922Z,6.03
2019-05-23T10:10:38.047Z,4.10
2019-05-23T10:13:07.146Z,4.40
2019-05-23T10:15:48.997Z,3.30
2019-05-23T10:18:19.856Z,4.80
2019-05-23T10:20:48.789Z,4.30
2019-05-23T10:23:18.193Z,4.63
2019-05-23T10:25:47.198Z,4.07
2019-05-23T10:28:16.390Z,7.37
2019-05-23T10:30:45.670Z,3.70
2019-05-23T10:33:15.088Z,5.90
2019-05-23T10:35:59.219Z,8.10
2019-05-23T10:38:14.930Z,3.90
2019-05-23T10:40:43.995Z,5.60
2019-05-23T10:43:13.213Z,4.60
2019-05-23T10:45:42.233Z,5.60
2019-05-23T10:48:12.633Z,8.10
2019-05-23T10:50:44.956Z,8.43
2019-05-23T10:53:12.447Z,4.50
2019-05-23T10:55:41.447Z,7.23
2019-05-23T10:58:10.749Z,8.70
2019-05-23T11:00:40.750Z,4.63
2019-05-23T11:03:12.035Z,4.53
2019-05-23T11:05:41.242Z,4.30
2019-05-23T11:08:11.317Z,6.53
2019-05-23T11:10:40.509Z,6.77
2019-05-23T11:13:09.653Z,7.30
2019-05-23T11:15:39.222Z,9.80
2019-05-23T11:18:10.193Z,7.23
2019-05-23T11:20:39.883Z,8.40
2019-05-23T11:23:10.260Z,20.63
2019-05-23T11:25:39.740Z,11.30
2019-05-23T11:28:08.738Z,8.90
2019-05-23T11:30:44.733Z,9.20
2019-05-23T11:33:14.779Z,9.63
2019-05-23T11:35:44.694Z,8.20
2019-05-23T11:38:13.969Z,9.77
2019-05-23T11:40:43.494Z,12.53
2019-05-23T11:43:12.558Z,8.60
2019-05-23T11:45:47.100Z,7.50
2019-05-23T11:48:17.278Z,8.30
2019-05-23T11:50:46.319Z,7.33
2019-05-23T11:53:15.872Z,8.17
2019-05-23T11:55:44.889Z,9.30
2019-05-23T11:58:15.019Z,10.13
2019-05-23T12:01:29.439Z,7.30
2019-05-23T12:04:02.041Z,11.43
2019-05-23T12:06:53.474Z,5.80
2019-05-23T12:09:08.613Z,7.90
2019-05-23T12:11:42.163Z,7.93
2019-05-23T12:14:08.378Z,10.23
2019-05-23T12:16:37.460Z,7.03
2019-05-23T12:19:06.860Z,4.97
2019-05-23T12:21:36.068Z,10.17
2019-05-23T12:24:05.418Z,7.03
2019-05-23T12:26:34.554Z,6.43
2019-05-23T12:29:03.766Z,10.10
2019-05-23T12:31:32.891Z,6.90
2019-05-23T12:34:01.841Z,6.23
2019-05-23T12:36:31.165Z,5.03
2019-05-23T12:39:00.461Z,9.50
2019-05-23T12:41:33.302Z,11.77
2019-05-23T12:44:03.256Z,8.57
2019-05-23T12:46:32.382Z,7.43
2019-05-23T12:49:20.505Z,8.90
2019-05-23T12:51:50.366Z,6.87
2019-05-23T12:54:19.445Z,5.17
2019-05-23T12:56:49.389Z,13.03
2019-05-23T12:59:19.230Z,7.93
2019-05-23T13:01:50.596Z,6.07
2019-05-23T13:04:20.417Z,7.33
2019-05-23T13:06:49.635Z,5.87
2019-05-23T13:09:18.890Z,5.30
2019-05-23T13:11:48.188Z,12.50
2019-05-23T13:14:17.834Z,5.83
2019-05-23T13:16:46.877Z,11.00
2019-05-23T13:19:17.029Z,6.60
2019-05-23T13:21:46.021Z,6.20
2019-05-23T13:24:14.931Z,6.40
2019-05-23T13:26:44.157Z,6.60
2019-05-23T13:29:13.337Z,9.27
2019-05-23T13:31:42.340Z,6.57
2019-05-23T13:34:11.350Z,8.17
2019-05-23T13:36:40.451Z,5.73
2019-05-23T13:39:10.292Z,6.57
2019-05-23T13:41:39.365Z,7.10
2019-05-23T13:44:08.846Z,8.17
2019-05-23T13:46:38.090Z,6.33
2019-05-23T13:49:07.163Z,5.40
2019-05-23T13:51:36.176Z,11.97
2019-05-23T13:54:05.700Z,7.20
2019-05-23T13:56:34.813Z,6.77
2019-05-23T13:59:04.147Z,5.73
2019-05-23T14:01:33.281Z,7.53
2019-05-23T14:04:02.497Z,6.30
2019-05-23T14:06:31.544Z,7.30
2019-05-23T14:09:00.539Z,5.07
2019-05-23T14:11:29.551Z,8.90
2019-05-23T14:14:01.472Z,6.93
2019-05-23T14:16:31.129Z,4.90
2019-05-23T14:19:00.180Z,8.50
2019-05-23T14:21:32.972Z,8.13
2019-05-23T14:24:02.214Z,6.53
2019-05-23T14:26:34.430Z,7.10
2019-05-23T14:29:03.674Z,5.17
2019-05-23T14:31:38.245Z,5.93
2019-05-23T14:34:15.816Z,7.53
2019-05-23T14:37:04.273Z,7.33
2019-05-23T14:40:01.592Z,10.03
2019-05-23T14:43:04.690Z,4.87
2019-05-23T14:45:51.442Z,6.80
2019-05-23T14:48:39.174Z,9.40
2019-05-23T14:51:20.924Z,5.37
2019-05-23T14:53:53.145Z,5.70
2019-05-23T14:56:23.130Z,4.50
2019-05-23T14:58:52.349Z,5.00
2019-05-23T15:01:23.406Z,8.90
2019-05-23T15:03:52.837Z,5.77
2019-05-23T15:06:21.976Z,6.03
2019-05-23T15:08:52.125Z,10.97
2019-05-23T15:11:21.414Z,10.83
2019-05-23T15:13:50.906Z,6.87
2019-05-23T15:16:20.128Z,8.37
2019-05-23T15:18:49.634Z,8.43
2019-05-23T15:21:18.664Z,6.60
2019-05-23T15:23:47.720Z,6.83
2019-05-23T15:26:23.150Z,10.60
2019-05-23T15:28:47.414Z,6.50
2019-05-23T15:31:16.688Z,4.63
2019-05-23T15:33:45.714Z,6.23
2019-05-23T15:36:14.728Z,6.50
2019-05-23T15:38:43.785Z,5.60
2019-05-23T15:41:13.227Z,9.17
2019-05-23T15:43:42.325Z,5.10
2019-05-23T15:46:11.416Z,9.60
2019-05-23T15:48:40.604Z,7.00
2019-05-23T15:51:11.258Z,6.00
2019-05-23T15:53:50.361Z,8.47
2019-05-23T15:56:53.594Z,11.33
2019-05-23T15:59:39.920Z,9.80
2019-05-23T16:02:12.586Z,5.73
2019-05-23T16:04:42.090Z,5.50
2019-05-23T16:07:11.811Z,6.37
2019-05-23T16:09:41.404Z,7.77
2019-05-23T16:12:17.017Z,5.97
2019-05-23T16:14:46.206Z,10.20
2019-05-23T16:17:15.317Z,6.37
2019-05-23T16:19:44.282Z,8.20
2019-05-23T16:22:13.717Z,7.50
2019-05-23T16:24:42.704Z,4.90
2019-05-23T16:27:12.211Z,6.57
2019-05-23T16:29:41.528Z,10.90
2019-05-23T16:32:10.632Z,5.10
2019-05-23T16:34:40.243Z,3.77
2019-05-23T16:37:09.275Z,5.87
2019-05-23T16:39:47.204Z,5.57
2019-05-23T16:42:09.959Z,7.00
2019-05-23T16:44:39.049Z,12.43
2019-05-23T16:47:08.251Z,5.13
2019-05-23T16:49:37.315Z,7.20
2019-05-23T16:52:06.463Z,6.13
2019-05-23T16:54:40.206Z,4.97
2019-05-23T16:57:24.993Z,9.80
2019-05-23T16:59:59.946Z,7.20
2019-05-23T17:02:48.770Z,4.83
2019-05-23T17:05:38.552Z,4.70
2019-05-23T17:08:16.914Z,7.50
2019-05-23T17:10:55.709Z,4.97
2019-05-23T17:13:34.984Z,8.57
2019-05-23T17:16:17.501Z,4.43
2019-05-23T17:19:10.086Z,7.73
2019-05-23T17:21:45.539Z,5.30
2019-05-23T17:24:40.129Z,5.47
2019-05-23T17:27:40.467Z,8.43
2019-05-23T17:30:22.035Z,12.00
2019-05-23T17:32:51.141Z,6.20
2019-05-23T17:35:20.218Z,9.77
2019-05-23T17:37:49.247Z,4.90
2019-05-23T17:40:24.936Z,6.63
2019-05-23T17:42:49.286Z,9.40
2019-05-23T17:45:20.245Z,6.47
2019-05-23T17:47:49.274Z,9.97
2019-05-23T17:50:18.371Z,7.17
2019-05-23T17:52:47.439Z,7.60
2019-05-23T17:55:16.971Z,14.07
2019-05-23T17:57:46.165Z,6.80
2019-05-23T18:00:17.911Z,9.43
2019-05-23T18:02:47.119Z,6.23
2019-05-23T18:05:16.363Z,6.00
2019-05-23T18:07:45.513Z,10.50
2019-05-23T18:10:14.831Z,6.03
2019-05-23T18:12:43.759Z,7.83
2019-05-23T18:15:13.471Z,9.53
2019-05-23T18:17:43.379Z,14.00
2019-05-23T18:20:13.217Z,4.50
2019-05-23T18:22:42.602Z,5.33
2019-05-23T18:25:13.586Z,7.07
2019-05-23T18:27:43.916Z,8.67
2019-05-23T18:30:22.706Z,8.50
2019-05-23T18:32:53.242Z,4.20
2019-05-23T18:35:22.622Z,5.00
2019-05-23T18:37:52.050Z,6.97
2019-05-23T18:40:21.625Z,6.63
2019-05-23T18:42:51.384Z,9.60
2019-05-23T18:45:21.144Z,4.93
2019-05-23T18:47:50.188Z,8.60
2019-05-23T18:50:20.698Z,4.80
2019-05-23T18:52:58.125Z,7.17
2019-05-23T18:55:27.946Z,14.20
2019-05-23T18:57:56.997Z,7.60
2019-05-23T19:01:17.097Z,5.30
2019-05-23T19:03:49.236Z,17.77
2019-05-23T19:06:21.543Z,7.20
2019-05-23T19:08:51.977Z,6.90
2019-05-23T19:11:21.903Z,7.40
2019-05-23T19:13:53.954Z,4.83
2019-05-23T19:16:22.984Z,9.13
2019-05-23T19:18:52.125Z,11.20
2019-05-23T19:21:21.822Z,10.53
2019-05-23T19:23:51.505Z,7.10
2019-05-23T19:26:21.863Z,7.10
2019-05-23T19:28:51.167Z,5.93
2019-05-23T19:31:20.587Z,15.33
2019-05-23T19:33:49.668Z,16.87
2019-05-23T19:36:18.984Z,9.93
2019-05-23T19:38:48.000Z,9.33
2019-05-23T19:41:17.074Z,5.93
2019-05-23T19:43:48.228Z,9.70
2019-05-23T19:46:17.526Z,6.07
2019-05-23T19:48:48.733Z,9.53
2019-05-23T19:51:20.065Z,9.00
2019-05-23T19:53:49.989Z,10.10
2019-05-23T19:56:19.466Z,6.60
2019-05-23T19:58:48.742Z,9.37
2019-05-23T20:01:18.677Z,8.40
2019-05-23T20:03:47.760Z,7.97
2019-05-23T20:06:17.029Z,9.50
2019-05-23T20:08:47.016Z,7.33
2019-05-23T20:11:18.556Z,19.77
2019-05-23T20:13:47.771Z,6.10
2019-05-23T20:16:16.835Z,7.30
2019-05-23T20:18:46.186Z,4.10
2019-05-23T20:21:17.125Z,7.90
2019-05-23T20:23:46.266Z,6.90
2019-05-23T20:26:15.464Z,4.10
2019-05-23T20:28:44.621Z,6.50
2019-05-23T20:31:13.618Z,11.83
2019-05-23T20:33:42.590Z,5.20
2019-05-23T20:36:14.959Z,10.30
2019-05-23T20:38:45.976Z,5.50
2019-05-23T20:41:15.548Z,6.20
2019-05-23T20:43:44.611Z,6.10
2019-05-23T20:46:13.722Z,8.53
2019-05-23T20:48:43.049Z,10.00
2019-05-23T20:51:13.102Z,6.57
2019-05-23T20:53:42.774Z,7.50
2019-05-23T20:56:11.921Z,5.17
2019-05-23T20:58:40.958Z,7.37
2019-05-23T21:01:20.744Z,5.03
2019-05-23T21:03:50.861Z,6.60
2019-05-23T21:06:20.411Z,7.63
2019-05-23T21:08:49.382Z,5.30
2019-05-23T21:11:18.517Z,8.03
2019-05-23T21:13:47.527Z,7.60
2019-05-23T21:16:16.569Z,5.70
2019-05-23T21:18:49.187Z,7.80
2019-05-23T21:21:16.891Z,6.70
2019-05-23T21:23:46.025Z,5.63
2019-05-23T21:26:14.984Z,4.97
2019-05-23T21:28:44.080Z,7.30
2019-05-23T21:31:20.195Z,6.37
2019-05-23T21:33:49.253Z,10.97
2019-05-23T21:36:18.325Z,5.40
2019-05-23T21:38:47.654Z,4.10
2019-05-23T21:41:16.736Z,6.73
2019-05-23T21:43:47.357Z,5.80
2019-05-23T21:46:16.463Z,5.07
2019-05-23T21:48:45.420Z,8.53
2019-05-23T21:51:14.441Z,7.60
2019-05-23T21:53:43.395Z,10.40
2019-05-23T21:56:13.353Z,4.53
2019-05-23T21:58:42.348Z,12.33
2019-05-23T22:01:43.858Z,7.80
2019-05-23T22:04:20.892Z,6.23
2019-05-23T22:06:55.878Z,10.70
2019-05-23T22:09:25.022Z,4.87
2019-05-23T22:11:54.261Z,8.77
2019-05-23T22:14:23.478Z,6.00
2019-05-23T22:16:52.726Z,7.63
2019-05-23T22:19:22.751Z,11.93
2019-05-23T22:21:51.841Z,14.70
2019-05-23T22:24:20.899Z,8.07
2019-05-23T22:26:49.827Z,6.33
2019-05-23T22:29:18.908Z,10.93
2019-05-23T22:31:47.829Z,8.63
2019-05-23T22:34:32.608Z,5.70
2019-05-23T22:37:02.076Z,6.43
2019-05-23T22:39:31.134Z,7.80
2019-05-23T22:42:00.102Z,6.40
2019-05-23T22:44:29.106Z,9.33
2019-05-23T22:46:58.253Z,6.23
2019-05-23T22:49:27.278Z,6.10
2019-05-23T22:51:56.200Z,19.00
2019-05-23T22:54:25.314Z,6.00
2019-05-23T22:56:54.277Z,7.17
2019-05-23T22:59:23.226Z,8.60
2019-05-23T23:01:52.333Z,11.13
2019-05-23T23:04:21.369Z,6.63
2019-05-23T23:06:50.467Z,6.13
2019-05-23T23:09:19.518Z,6.57
2019-05-23T23:11:48.554Z,6.80
2019-05-23T23:14:17.727Z,5.27
2019-05-23T23:16:47.137Z,8.90
2019-05-23T23:19:16.162Z,10.20
2019-05-23T23:21:45.167Z,9.33
2019-05-23T23:24:14.167Z,6.73
2019-05-23T23:26:43.262Z,4.40
2019-05-23T23:29:12.394Z,7.33
2019-05-23T23:31:41.411Z,5.33
2019-05-23T23:34:10.616Z,6.40
2019-05-23T23:36:39.711Z,9.20
2019-05-23T23:39:08.722Z,8.10
2019-05-23T23:41:37.810Z,9.63
2019-05-23T23:44:08.444Z,7.30
2019-05-23T23:46:55.197Z,6.93
2019-05-23T23:49:42.252Z,6.90
2019-05-23T23:52:29.326Z,4.97
2019-05-23T23:55:16.207Z,4.57
2019-05-23T23:57:59.707Z,4.57
